createdAt,value
2023-07-14T00:00:30.565Z,16.99
2023-07-14T00:02:58.142Z,16.86
2023-07-14T00:05:30.290Z,16.94
2023-07-14T00:07:58.136Z,16.78
2023-07-14T00:10:35.966Z,16.56
2023-07-14T00:13:09.004Z,16.54
2023-07-14T00:15:39.253Z,16.71
2023-07-14T00:18:18.761Z,16.74
2023-07-14T00:20:45.493Z,16.47
2023-07-14T00:23:13.895Z,16.57
2023-07-14T00:25:41.521Z,16.41
2023-07-14T00:28:26.146Z,16.55
2023-07-14T00:30:53.034Z,16.59
2023-07-14T00:33:20.494Z,16.65
2023-07-14T00:35:50.844Z,16.49
2023-07-14T00:38:17.528Z,16.43
2023-07-14T00:40:49.070Z,16.49
2023-07-14T00:43:22.171Z,16.51
2023-07-14T00:45:51.189Z,16.39
2023-07-14T00:48:21.437Z,16.29
2023-07-14T00:51:06.440Z,16.33
2023-07-14T00:53:36.955Z,16.39
2023-07-14T00:56:09.479Z,16.38
2023-07-14T00:58:37.054Z,16.31
2023-07-14T01:01:24.449Z,16.46
2023-07-14T01:03:57.172Z,16.33
2023-07-14T01:06:39.834Z,16.35
2023-07-14T01:09:15.077Z,16.18
2023-07-14T01:11:55.682Z,16.11
2023-07-14T01:14:29.526Z,16.32
2023-07-14T01:16:57.561Z,16.09
2023-07-14T01:19:42.137Z,16.11
2023-07-14T01:22:36.646Z,16.04
2023-07-14T01:25:25.187Z,16.00
2023-07-14T01:27:51.936Z,15.97
2023-07-14T01:30:20.498Z,15.90
2023-07-14T01:32:49.826Z,15.91
2023-07-14T01:35:19.215Z,15.86
2023-07-14T01:37:46.947Z,15.81
2023-07-14T01:40:19.001Z,15.75
2023-07-14T01:43:00.605Z,15.71
2023-07-14T01:45:34.391Z,15.76
2023-07-14T01:48:04.814Z,15.70
2023-07-14T01:50:35.034Z,15.91
2023-07-14T01:53:07.299Z,15.76
2023-07-14T01:55:36.160Z,15.69
2023-07-14T01:58:09.176Z,15.66
2023-07-14T02:00:37.743Z,15.51
2023-07-14T02:03:07.668Z,15.51
2023-07-14T02:05:37.738Z,15.01
2023-07-14T02:08:07.383Z,15.01
2023-07-14T02:10:34.515Z,14.90
2023-07-14T02:13:02.726Z,14.91
2023-07-14T02:15:32.985Z,14.99
2023-07-14T02:18:01.894Z,14.90
2023-07-14T02:20:36.292Z,14.77
2023-07-14T02:23:06.618Z,15.03
2023-07-14T02:25:48.216Z,15.01
2023-07-14T02:28:15.933Z,14.92
2023-07-14T02:30:50.132Z,14.79
2023-07-14T02:33:25.567Z,14.77
2023-07-14T02:36:40.411Z,14.66
2023-07-14T02:39:07.985Z,14.63
2023-07-14T02:41:40.226Z,14.71
2023-07-14T02:44:10.077Z,14.68
2023-07-14T02:46:55.228Z,14.76
2023-07-14T02:49:22.058Z,14.86
2023-07-14T02:51:48.747Z,14.85
2023-07-14T02:54:15.421Z,14.70
2023-07-14T02:56:42.127Z,14.62
2023-07-14T02:59:15.162Z,14.56
2023-07-14T03:01:41.968Z,14.84
2023-07-14T03:04:08.854Z,14.71
2023-07-14T03:06:35.728Z,14.54
2023-07-14T03:09:02.696Z,14.46
2023-07-14T03:11:29.589Z,14.24
2023-07-14T03:13:56.395Z,14.53
2023-07-14T03:16:23.154Z,14.26
2023-07-14T03:18:49.875Z,14.22
2023-07-14T03:21:16.911Z,14.24
2023-07-14T03:23:43.936Z,14.20
2023-07-14T03:26:11.469Z,14.15
2023-07-14T03:28:38.722Z,14.27
2023-07-14T03:31:06.320Z,14.38
2023-07-14T03:33:36.970Z,14.37
2023-07-14T03:36:06.072Z,14.14
2023-07-14T03:38:46.250Z,14.05
2023-07-14T03:41:15.693Z,14.02
2023-07-14T03:43:42.920Z,13.91
2023-07-14T03:46:09.809Z,14.02
2023-07-14T03:48:36.598Z,14.02
2023-07-14T03:51:04.901Z,14.08
2023-07-14T03:53:32.332Z,14.06
2023-07-14T03:55:59.993Z,14.05
2023-07-14T03:58:26.896Z,13.94
2023-07-14T04:00:58.925Z,14.02
2023-07-14T04:03:25.796Z,13.94
2023-07-14T04:05:52.509Z,13.93
2023-07-14T04:08:19.302Z,14.14
2023-07-14T04:10:45.988Z,14.18
2023-07-14T04:13:12.689Z,13.97
2023-07-14T04:15:39.401Z,13.82
2023-07-14T04:18:06.238Z,13.81
2023-07-14T04:20:32.954Z,13.89
2023-07-14T04:22:59.879Z,14.06
2023-07-14T04:25:26.759Z,13.98
2023-07-14T04:27:54.155Z,14.07
2023-07-14T04:30:21.391Z,14.06
2023-07-14T04:32:48.609Z,14.21
2023-07-14T04:35:15.543Z,14.42
2023-07-14T04:37:42.265Z,14.51
2023-07-14T04:40:25.976Z,14.69
2023-07-14T04:42:57.043Z,14.68
2023-07-14T04:45:23.853Z,14.79
2023-07-14T04:47:52.510Z,15.20
2023-07-14T04:50:19.354Z,15.30
2023-07-14T04:52:46.133Z,15.28
2023-07-14T04:55:12.873Z,15.18
2023-07-14T04:57:39.665Z,15.12
2023-07-14T05:00:07.269Z,15.37
2023-07-14T05:02:37.169Z,15.49
2023-07-14T05:05:16.265Z,15.66
2023-07-14T05:07:42.992Z,15.59
2023-07-14T05:10:10.231Z,15.56
2023-07-14T05:12:37.149Z,15.75
2023-07-14T05:15:12.043Z,15.76
2023-07-14T05:17:39.825Z,15.84
2023-07-14T05:20:08.023Z,15.91
2023-07-14T05:22:34.950Z,15.75
2023-07-14T05:25:01.761Z,15.94
2023-07-14T05:27:28.456Z,16.11
2023-07-14T05:29:55.719Z,16.36
2023-07-14T05:32:23.737Z,16.46
2023-07-14T05:34:50.738Z,16.36
2023-07-14T05:37:18.871Z,16.47
2023-07-14T05:39:46.339Z,16.74
2023-07-14T05:42:13.435Z,16.84
2023-07-14T05:44:40.719Z,16.92
2023-07-14T05:47:07.744Z,16.91
2023-07-14T05:49:34.889Z,16.94
2023-07-14T05:52:02.132Z,17.09
2023-07-14T05:54:29.242Z,17.30
2023-07-14T05:56:56.971Z,17.44
2023-07-14T05:59:24.033Z,17.53
2023-07-14T06:01:51.402Z,17.52
2023-07-14T06:04:18.200Z,17.59
2023-07-14T06:06:44.906Z,17.56
2023-07-14T06:09:13.830Z,17.38
2023-07-14T06:11:41.300Z,17.59
2023-07-14T06:14:08.193Z,17.71
2023-07-14T06:16:34.942Z,17.76
2023-07-14T06:19:01.769Z,18.13
2023-07-14T06:21:28.440Z,18.19
2023-07-14T06:23:55.119Z,18.28
2023-07-14T06:26:21.827Z,18.22
2023-07-14T06:28:48.500Z,18.48
2023-07-14T06:31:15.751Z,18.52
2023-07-14T06:33:42.457Z,18.39
2023-07-14T06:36:09.540Z,18.50
2023-07-14T06:38:36.347Z,18.65
2023-07-14T06:41:05.755Z,18.79
2023-07-14T06:43:33.553Z,19.11
2023-07-14T06:46:00.747Z,18.89
2023-07-14T06:48:28.485Z,18.93
2023-07-14T06:50:55.739Z,19.01
2023-07-14T06:53:23.066Z,18.92
2023-07-14T06:55:49.753Z,19.10
2023-07-14T06:58:16.562Z,19.21
2023-07-14T07:00:43.250Z,19.57
2023-07-14T07:03:09.996Z,19.27
2023-07-14T07:05:44.231Z,19.69
2023-07-14T07:08:13.667Z,19.93
2023-07-14T07:10:44.777Z,19.98
2023-07-14T07:13:13.358Z,20.01
2023-07-14T07:15:41.086Z,20.02
2023-07-14T07:18:08.874Z,19.80
2023-07-14T07:20:42.632Z,20.08
2023-07-14T07:23:10.894Z,19.76
2023-07-14T07:25:37.700Z,20.15
2023-07-14T07:28:05.097Z,20.15
2023-07-14T07:30:34.450Z,20.32
2023-07-14T07:33:01.181Z,20.05
2023-07-14T07:35:29.176Z,20.50
2023-07-14T07:37:55.946Z,20.75
2023-07-14T07:40:22.681Z,20.38
2023-07-14T07:42:49.492Z,20.34
2023-07-14T07:45:17.961Z,20.77
2023-07-14T07:47:44.706Z,20.75
2023-07-14T07:50:11.517Z,21.23
2023-07-14T07:52:38.231Z,21.11
2023-07-14T07:55:05.616Z,21.27
2023-07-14T07:57:33.917Z,21.21
2023-07-14T08:00:01.041Z,21.16
2023-07-14T08:02:27.895Z,21.22
2023-07-14T08:04:55.150Z,21.35
2023-07-14T08:07:21.943Z,21.26
2023-07-14T08:09:51.808Z,21.56
2023-07-14T08:12:18.545Z,21.58
2023-07-14T08:14:57.436Z,21.74
2023-07-14T08:17:25.935Z,21.82
2023-07-14T08:19:53.390Z,21.68
2023-07-14T08:22:22.227Z,21.82
2023-07-14T08:24:49.413Z,22.16
2023-07-14T08:27:16.511Z,22.10
2023-07-14T08:29:43.819Z,22.26
2023-07-14T08:32:11.251Z,21.88
2023-07-14T08:34:38.339Z,22.16
2023-07-14T08:37:06.064Z,21.92
2023-07-14T08:39:34.432Z,22.13
2023-07-14T08:42:08.516Z,21.94
2023-07-14T08:44:52.070Z,21.64
2023-07-14T08:47:32.188Z,21.88
2023-07-14T08:50:15.115Z,21.82
2023-07-14T08:52:41.914Z,22.10
2023-07-14T08:55:17.976Z,22.14
2023-07-14T08:57:50.819Z,22.55
2023-07-14T09:00:27.226Z,22.22
2023-07-14T09:03:07.722Z,22.27
2023-07-14T09:05:38.148Z,22.30
2023-07-14T09:08:05.739Z,22.26
2023-07-14T09:10:53.200Z,22.57
2023-07-14T09:14:18.664Z,22.57
2023-07-14T09:16:53.387Z,23.08
2023-07-14T09:19:33.800Z,22.98
2023-07-14T09:22:20.186Z,22.39
2023-07-14T09:25:00.912Z,22.66
2023-07-14T09:27:30.144Z,22.76
2023-07-14T09:29:59.238Z,23.06
2023-07-14T09:32:39.057Z,23.21
2023-07-14T09:35:18.752Z,23.36
2023-07-14T09:37:55.337Z,23.15
2023-07-14T09:40:43.209Z,23.33
2023-07-14T09:43:12.042Z,23.60
2023-07-14T09:45:41.322Z,23.65
2023-07-14T09:48:20.584Z,23.49
2023-07-14T09:51:02.185Z,23.47
2023-07-14T09:53:31.189Z,23.57
2023-07-14T09:56:06.844Z,23.76
2023-07-14T09:58:34.811Z,23.91
2023-07-14T10:01:07.206Z,23.75
2023-07-14T10:03:45.836Z,23.81
2023-07-14T10:06:22.068Z,23.81
2023-07-14T10:08:51.461Z,24.20
2023-07-14T10:11:18.363Z,24.56
2023-07-14T10:13:54.310Z,24.34
2023-07-14T10:16:22.053Z,24.40
2023-07-14T10:18:53.931Z,24.30
2023-07-14T10:21:30.381Z,24.44
2023-07-14T10:23:58.526Z,24.44
2023-07-14T10:26:29.610Z,24.61
2023-07-14T10:28:59.380Z,24.50
2023-07-14T10:31:45.624Z,24.50
2023-07-14T10:34:25.984Z,24.75
2023-07-14T10:36:58.616Z,24.89
2023-07-14T10:39:37.035Z,24.84
2023-07-14T10:42:05.607Z,24.79
2023-07-14T10:44:37.093Z,24.98
2023-07-14T10:47:13.278Z,24.77
2023-07-14T10:49:47.099Z,24.41
2023-07-14T10:52:28.512Z,24.64
2023-07-14T10:55:04.930Z,24.79
2023-07-14T10:57:40.647Z,24.93
2023-07-14T11:00:30.410Z,25.15
2023-07-14T11:03:28.119Z,25.28
2023-07-14T11:06:04.427Z,25.32
2023-07-14T11:08:33.772Z,25.39
2023-07-14T11:11:04.188Z,25.29
2023-07-14T11:13:44.013Z,25.16
2023-07-14T11:16:39.498Z,24.84
2023-07-14T11:19:14.812Z,25.29
2023-07-14T11:21:59.008Z,25.41
2023-07-14T11:24:39.861Z,25.22
2023-07-14T11:27:25.687Z,25.14
2023-07-14T11:30:01.372Z,25.46
2023-07-14T11:32:54.076Z,25.42
2023-07-14T11:35:35.388Z,25.16
2023-07-14T11:38:28.239Z,25.38
2023-07-14T11:40:55.519Z,25.56
2023-07-14T11:43:25.564Z,25.57
2023-07-14T11:46:00.670Z,25.64
2023-07-14T11:48:39.866Z,25.39
2023-07-14T11:51:06.505Z,26.07
2023-07-14T11:53:34.761Z,25.97
2023-07-14T11:56:24.883Z,26.15
2023-07-14T11:59:05.931Z,25.95
2023-07-14T12:01:33.189Z,26.03
2023-07-14T12:04:27.525Z,25.84
2023-07-14T12:07:16.431Z,25.63
2023-07-14T12:10:01.495Z,25.54
2023-07-14T12:12:31.510Z,25.82
2023-07-14T12:14:58.216Z,25.92
2023-07-14T12:17:46.610Z,25.86
2023-07-14T12:20:13.334Z,26.04
2023-07-14T12:22:42.548Z,26.01
2023-07-14T12:25:13.654Z,26.02
2023-07-14T12:27:45.737Z,26.09
2023-07-14T12:30:19.090Z,25.94
2023-07-14T12:32:46.289Z,25.83
2023-07-14T12:35:18.654Z,26.11
2023-07-14T12:37:47.478Z,26.30
2023-07-14T12:40:21.863Z,26.48
2023-07-14T12:42:49.917Z,26.15
2023-07-14T12:45:19.816Z,26.29
2023-07-14T12:47:48.653Z,26.29
2023-07-14T12:50:22.310Z,26.15
2023-07-14T12:52:50.613Z,26.30
2023-07-14T12:55:25.171Z,26.35
2023-07-14T12:57:53.062Z,26.32
2023-07-14T13:00:21.627Z,26.18
2023-07-14T13:02:50.075Z,26.37
2023-07-14T13:05:19.082Z,26.41
2023-07-14T13:07:50.434Z,26.36
2023-07-14T13:10:22.524Z,26.28
2023-07-14T13:12:53.697Z,26.32
2023-07-14T13:15:21.410Z,26.21
2023-07-14T13:17:50.960Z,26.32
2023-07-14T13:20:21.984Z,26.43
2023-07-14T13:23:07.017Z,26.65
2023-07-14T13:25:33.776Z,26.44
2023-07-14T13:28:18.230Z,26.57
2023-07-14T13:30:46.099Z,26.52
2023-07-14T13:33:16.511Z,26.43
2023-07-14T13:35:57.158Z,26.42
2023-07-14T13:38:24.162Z,26.86
2023-07-14T13:40:54.334Z,26.62
2023-07-14T13:43:22.565Z,26.85
2023-07-14T13:46:05.975Z,26.95
2023-07-14T13:48:34.529Z,26.94
2023-07-14T13:51:04.732Z,27.20
2023-07-14T13:53:31.400Z,27.37
2023-07-14T13:55:58.310Z,27.20
2023-07-14T13:58:25.062Z,27.29
2023-07-14T14:00:51.927Z,27.44
2023-07-14T14:03:26.065Z,27.56
2023-07-14T14:05:53.250Z,27.76
2023-07-14T14:08:20.907Z,27.70
2023-07-14T14:10:48.196Z,27.59
2023-07-14T14:13:16.545Z,27.59
2023-07-14T14:15:48.853Z,27.68
2023-07-14T14:18:20.780Z,27.87
2023-07-14T14:20:48.639Z,27.80
2023-07-14T14:23:18.637Z,27.72
2023-07-14T14:25:45.971Z,27.41
2023-07-14T14:28:13.056Z,27.51
2023-07-14T14:30:43.024Z,27.49
2023-07-14T14:33:15.514Z,27.63
2023-07-14T14:35:43.067Z,27.34
2023-07-14T14:38:28.075Z,27.18
2023-07-14T14:41:06.423Z,27.33
2023-07-14T14:43:33.431Z,26.78
2023-07-14T14:46:01.895Z,27.04
2023-07-14T14:48:40.064Z,27.00
2023-07-14T14:51:13.920Z,26.83
2023-07-14T14:53:42.372Z,26.92
2023-07-14T14:56:25.820Z,27.02
2023-07-14T14:58:57.690Z,26.89
2023-07-14T15:01:44.392Z,26.76
2023-07-14T15:04:18.081Z,26.82
2023-07-14T15:06:47.346Z,26.87
2023-07-14T15:09:15.471Z,26.65
2023-07-14T15:11:46.628Z,26.46
2023-07-14T15:14:37.534Z,26.53
2023-07-14T15:17:35.382Z,26.63
2023-07-14T15:20:02.330Z,26.52
2023-07-14T15:22:29.681Z,26.57
2023-07-14T15:24:56.376Z,26.41
2023-07-14T15:27:29.603Z,26.43
2023-07-14T15:30:04.208Z,26.45
2023-07-14T15:32:31.747Z,26.29
2023-07-14T15:34:58.576Z,26.38
2023-07-14T15:37:25.279Z,26.37
2023-07-14T15:39:52.093Z,26.42
2023-07-14T15:42:18.747Z,26.28
2023-07-14T15:44:45.429Z,26.36
2023-07-14T15:47:17.186Z,26.38
2023-07-14T15:49:48.960Z,26.43
2023-07-14T15:52:19.735Z,26.39
2023-07-14T15:54:46.926Z,26.74
2023-07-14T15:57:16.137Z,26.45
2023-07-14T15:59:44.875Z,26.56
2023-07-14T16:02:16.675Z,26.73
2023-07-14T16:04:43.650Z,26.50
2023-07-14T16:07:15.350Z,26.41
2023-07-14T16:09:43.578Z,26.51
2023-07-14T16:12:15.274Z,26.69
2023-07-14T16:14:42.144Z,26.52
2023-07-14T16:17:08.897Z,26.68
2023-07-14T16:19:37.457Z,26.68
2023-07-14T16:22:04.712Z,26.69
2023-07-14T16:24:38.565Z,26.61
2023-07-14T16:27:16.376Z,26.73
2023-07-14T16:29:43.210Z,26.61
2023-07-14T16:32:16.269Z,26.65
2023-07-14T16:34:43.550Z,26.57
2023-07-14T16:37:20.098Z,26.50
2023-07-14T16:39:48.578Z,26.63
2023-07-14T16:42:19.690Z,26.73
2023-07-14T16:44:46.589Z,26.75
2023-07-14T16:47:13.389Z,26.58
2023-07-14T16:49:40.988Z,26.44
2023-07-14T16:52:40.358Z,26.64
2023-07-14T16:55:33.452Z,26.53
2023-07-14T16:58:03.382Z,26.55
2023-07-14T17:00:33.095Z,26.41
2023-07-14T17:03:11.789Z,26.22
2023-07-14T17:05:40.146Z,26.31
2023-07-14T17:08:16.045Z,26.45
2023-07-14T17:10:42.778Z,26.27
2023-07-14T17:13:25.884Z,26.07
2023-07-14T17:15:54.791Z,26.02
2023-07-14T17:18:25.058Z,26.08
2023-07-14T17:20:53.987Z,26.03
2023-07-14T17:23:24.416Z,26.08
2023-07-14T17:25:52.902Z,26.00
2023-07-14T17:28:21.161Z,26.12
2023-07-14T17:30:54.028Z,25.98
2023-07-14T17:33:25.879Z,26.00
2023-07-14T17:35:55.067Z,26.07
2023-07-14T17:38:24.508Z,25.93
2023-07-14T17:40:51.191Z,25.90
2023-07-14T17:43:21.852Z,25.86
2023-07-14T17:45:49.774Z,25.84
2023-07-14T17:48:17.053Z,25.80
2023-07-14T17:50:47.607Z,25.71
2023-07-14T17:53:19.512Z,25.61
2023-07-14T17:55:46.655Z,25.55
2023-07-14T17:58:15.066Z,25.78
2023-07-14T18:00:45.512Z,25.69
2023-07-14T18:03:27.117Z,25.63
2023-07-14T18:05:54.302Z,25.60
2023-07-14T18:08:24.599Z,25.64
2023-07-14T18:10:58.355Z,25.49
2023-07-14T18:13:38.021Z,25.66
2023-07-14T18:16:05.364Z,25.61
2023-07-14T18:18:32.212Z,25.56
2023-07-14T18:21:02.102Z,25.43
2023-07-14T18:23:31.836Z,25.41
2023-07-14T18:25:59.184Z,25.51
2023-07-14T18:28:28.186Z,25.42
2023-07-14T18:30:56.822Z,25.33
2023-07-14T18:33:26.748Z,25.13
2023-07-14T18:35:57.114Z,25.06
2023-07-14T18:38:25.236Z,24.99
2023-07-14T18:40:55.118Z,24.98
2023-07-14T18:43:38.169Z,24.90
2023-07-14T18:46:06.922Z,24.78
2023-07-14T18:48:35.396Z,24.67
2023-07-14T18:51:02.450Z,24.55
2023-07-14T18:53:29.192Z,24.37
2023-07-14T18:55:56.161Z,24.31
2023-07-14T18:58:25.723Z,24.33
2023-07-14T19:00:55.994Z,24.22
2023-07-14T19:03:33.347Z,24.13
2023-07-14T19:06:01.237Z,23.88
2023-07-14T19:08:28.270Z,23.79
2023-07-14T19:11:16.784Z,23.75
2023-07-14T19:13:44.700Z,23.66
2023-07-14T19:16:24.817Z,23.60
2023-07-14T19:18:52.115Z,23.63
2023-07-14T19:21:24.777Z,23.56
2023-07-14T19:23:51.813Z,23.47
2023-07-14T19:26:18.851Z,23.36
2023-07-14T19:28:47.505Z,23.43
2023-07-14T19:31:31.189Z,23.14
2023-07-14T19:34:02.379Z,23.24
2023-07-14T19:36:29.104Z,23.33
2023-07-14T19:38:57.623Z,22.92
2023-07-14T19:41:25.533Z,22.95
2023-07-14T19:43:52.647Z,23.00
2023-07-14T19:46:19.854Z,22.88
2023-07-14T19:48:47.019Z,22.79
2023-07-14T19:51:25.033Z,22.60
2023-07-14T19:53:53.448Z,22.48
2023-07-14T19:56:22.751Z,22.31
2023-07-14T19:58:50.026Z,22.43
2023-07-14T20:01:17.676Z,22.37
2023-07-14T20:03:45.423Z,22.24
2023-07-14T20:06:21.756Z,22.26
2023-07-14T20:08:54.540Z,22.29
2023-07-14T20:11:27.134Z,22.23
2023-07-14T20:13:54.968Z,22.18
2023-07-14T20:16:23.459Z,22.29
2023-07-14T20:18:51.216Z,22.22
2023-07-14T20:21:27.130Z,22.27
2023-07-14T20:23:56.080Z,22.18
2023-07-14T20:26:22.973Z,21.97
2023-07-14T20:28:51.112Z,21.78
2023-07-14T20:33:48.708Z,21.65
2023-07-14T20:36:19.036Z,21.60
2023-07-14T20:38:46.113Z,21.47
2023-07-14T20:41:20.909Z,21.54
2023-07-14T20:43:48.755Z,21.56
2023-07-14T20:46:27.314Z,21.39
2023-07-14T20:49:10.844Z,21.28
2023-07-14T20:51:45.283Z,21.18
2023-07-14T20:54:15.723Z,21.20
2023-07-14T20:56:42.691Z,21.24
2023-07-14T20:59:09.547Z,21.37
2023-07-14T21:01:36.725Z,21.21
2023-07-14T21:04:21.052Z,21.06
2023-07-14T21:06:47.729Z,21.00
2023-07-14T21:09:14.404Z,21.14
2023-07-14T21:11:41.810Z,21.03
2023-07-14T21:14:11.153Z,21.09
2023-07-14T21:16:38.057Z,21.30
2023-07-14T21:19:04.868Z,20.98
2023-07-14T21:21:35.150Z,21.07
2023-07-14T21:24:10.736Z,20.96
2023-07-14T21:26:37.532Z,20.68
2023-07-14T21:29:06.989Z,20.68
2023-07-14T21:31:42.747Z,20.49
2023-07-14T21:34:23.048Z,20.73
2023-07-14T21:36:50.563Z,20.66
2023-07-14T21:39:24.425Z,20.67
2023-07-14T21:41:52.503Z,20.44
2023-07-14T21:44:19.329Z,20.22
2023-07-14T21:46:47.169Z,20.24
2023-07-14T21:49:19.075Z,20.29
2023-07-14T21:51:47.046Z,20.38
2023-07-14T21:54:16.645Z,20.19
2023-07-14T21:56:46.058Z,20.25
2023-07-14T21:59:14.561Z,20.23
2023-07-14T22:01:45.383Z,20.36
2023-07-14T22:04:19.529Z,20.23
2023-07-14T22:06:48.307Z,20.15
2023-07-14T22:09:16.114Z,20.06
2023-07-14T22:11:42.797Z,19.98
2023-07-14T22:14:21.910Z,19.94
2023-07-14T22:16:48.877Z,19.92
2023-07-14T22:19:17.371Z,19.90
2023-07-14T22:21:46.011Z,19.86
2023-07-14T22:24:16.163Z,19.83
2023-07-14T22:26:42.945Z,19.90
2023-07-14T22:29:10.975Z,19.90
2023-07-14T22:31:39.281Z,19.81
2023-07-14T22:34:15.163Z,19.84
2023-07-14T22:36:41.968Z,19.51
2023-07-14T22:39:14.653Z,19.60
2023-07-14T22:41:45.101Z,19.59
2023-07-14T22:44:18.519Z,19.65
2023-07-14T22:46:47.204Z,19.47
2023-07-14T22:49:15.364Z,19.54
2023-07-14T22:51:47.166Z,19.54
2023-07-14T22:54:13.889Z,19.58
2023-07-14T22:56:40.891Z,19.39
2023-07-14T22:59:07.980Z,19.43
2023-07-14T23:01:36.664Z,19.43
2023-07-14T23:04:04.019Z,19.29
2023-07-14T23:06:30.777Z,19.11
2023-07-14T23:08:57.805Z,19.20
2023-07-14T23:11:38.816Z,19.39
2023-07-14T23:14:05.872Z,19.34
2023-07-14T23:16:33.066Z,19.33
2023-07-14T23:19:00.523Z,19.35
2023-07-14T23:21:30.422Z,19.24
2023-07-14T23:23:59.229Z,19.28
2023-07-14T23:26:29.872Z,19.26
2023-07-14T23:28:57.374Z,19.19
2023-07-14T23:31:27.821Z,19.28
2023-07-14T23:33:54.774Z,19.32
2023-07-14T23:36:23.971Z,19.08
2023-07-14T23:38:50.992Z,18.92
2023-07-14T23:41:26.276Z,18.75
2023-07-14T23:43:56.971Z,18.53
2023-07-14T23:46:25.589Z,18.58
2023-07-14T23:48:53.291Z,18.65
2023-07-14T23:51:27.586Z,18.77
2023-07-14T23:53:55.154Z,18.60
2023-07-14T23:56:22.262Z,18.63
2023-07-14T23:58:49.812Z,18.56
